West Friendship, Maryland
Current Conditions -  °F | °C
As of 1:15 PM on Thursday 29 Jan 2015 (Local Time) from KGAI Reporting Station
Overcast Overcast  
Wind Chill: 24°   Ceiling: 9000
Heat Index: 32°   Visibility: 10mi
Dew Point:   Wind: 10mph
Humidity: 38%   Direction: 150°SSE
Pressure: 30.19"   Gusts: NA
Location:  39.3°N, 76.95°W
Report Text: KGAI 291815Z 15009KT 10SM OVC090 00/M13 A3019 RMK AO1
Loading
Personal Weather Stations






























Interactive Weather Map New forecast layout! Learn more

10-Day Weather Forecast

Advertisements
Track Severe Weather on mobile